sensor_id;sensor_type;location;lat;lon;timestamp;P1;durP1;ratioP1;P2;durP2;ratioP2
19747;SDS011;10032;51.386;12.516;2023-08-07T00:02:19;5.20;;;1.75;;
19747;SDS011;10032;51.386;12.516;2023-08-07T00:04:44;1.73;;;1.60;;
19747;SDS011;10032;51.386;12.516;2023-08-07T00:07:10;1.85;;;1.67;;
19747;SDS011;10032;51.386;12.516;2023-08-07T00:09:35;2.67;;;1.80;;
19747;SDS011;10032;51.386;12.516;2023-08-07T00:12:01;1.88;;;1.77;;
19747;SDS011;10032;51.386;12.516;2023-08-07T00:14:26;2.13;;;1.95;;
19747;SDS011;10032;51.386;12.516;2023-08-07T00:16:51;1.60;;;1.50;;
19747;SDS011;10032;51.386;12.516;2023-08-07T00:19:17;2.33;;;2.00;;
19747;SDS011;10032;51.386;12.516;2023-08-07T00:21:42;1.83;;;1.50;;
19747;SDS011;10032;51.386;12.516;2023-08-07T00:24:07;1.73;;;1.63;;
19747;SDS011;10032;51.386;12.516;2023-08-07T00:26:33;2.03;;;1.45;;
19747;SDS011;10032;51.386;12.516;2023-08-07T00:28:58;3.40;;;1.95;;
19747;SDS011;10032;51.386;12.516;2023-08-07T00:31:24;1.50;;;1.40;;
19747;SDS011;10032;51.386;12.516;2023-08-07T00:33:49;1.85;;;1.50;;
19747;SDS011;10032;51.386;12.516;2023-08-07T00:36:16;1.60;;;1.48;;
19747;SDS011;10032;51.386;12.516;2023-08-07T00:38:42;1.55;;;1.45;;
19747;SDS011;10032;51.386;12.516;2023-08-07T00:41:07;2.28;;;1.70;;
19747;SDS011;10032;51.386;12.516;2023-08-07T00:43:34;2.70;;;2.00;;
19747;SDS011;10032;51.386;12.516;2023-08-07T00:46:00;1.75;;;1.65;;
19747;SDS011;10032;51.386;12.516;2023-08-07T00:48:26;1.40;;;1.23;;
19747;SDS011;10032;51.386;12.516;2023-08-07T00:50:52;2.00;;;1.83;;
19747;SDS011;10032;51.386;12.516;2023-08-07T00:53:18;3.78;;;1.90;;
19747;SDS011;10032;51.386;12.516;2023-08-07T00:55:44;1.70;;;1.60;;
19747;SDS011;10032;51.386;12.516;2023-08-07T00:58:11;2.13;;;1.83;;
19747;SDS011;10032;51.386;12.516;2023-08-07T01:00:37;2.83;;;1.65;;
19747;SDS011;10032;51.386;12.516;2023-08-07T01:03:04;1.98;;;1.70;;
19747;SDS011;10032;51.386;12.516;2023-08-07T01:05:30;2.67;;;1.75;;
19747;SDS011;10032;51.386;12.516;2023-08-07T01:07:56;1.70;;;1.60;;
19747;SDS011;10032;51.386;12.516;2023-08-07T01:13:27;1.58;;;1.48;;
19747;SDS011;10032;51.386;12.516;2023-08-07T01:16:10;1.70;;;1.60;;
19747;SDS011;10032;51.386;12.516;2023-08-07T01:18:42;1.95;;;1.73;;
19747;SDS011;10032;51.386;12.516;2023-08-07T01:21:18;1.65;;;1.55;;
19747;SDS011;10032;51.386;12.516;2023-08-07T01:23:48;1.52;;;1.42;;
19747;SDS011;10032;51.386;12.516;2023-08-07T01:26:17;2.33;;;2.10;;
19747;SDS011;10032;51.386;12.516;2023-08-07T01:29:47;3.25;;;1.98;;
19747;SDS011;10032;51.386;12.516;2023-08-07T01:31:46;2.60;;;2.28;;
19747;SDS011;10032;51.386;12.516;2023-08-07T01:34:17;2.78;;;2.58;;
19747;SDS011;10032;51.386;12.516;2023-08-07T01:36:44;3.47;;;3.17;;
19747;SDS011;10032;51.386;12.516;2023-08-07T01:39:13;3.90;;;2.35;;
19747;SDS011;10032;51.386;12.516;2023-08-07T01:41:40;3.58;;;3.03;;
19747;SDS011;10032;51.386;12.516;2023-08-07T01:44:06;3.72;;;2.70;;
19747;SDS011;10032;51.386;12.516;2023-08-07T01:46:31;4.90;;;2.72;;
19747;SDS011;10032;51.386;12.516;2023-08-07T01:48:56;4.43;;;3.03;;
19747;SDS011;10032;51.386;12.516;2023-08-07T01:51:22;6.50;;;3.08;;
19747;SDS011;10032;51.386;12.516;2023-08-07T01:53:47;3.90;;;3.45;;
19747;SDS011;10032;51.386;12.516;2023-08-07T01:56:13;3.10;;;2.80;;
19747;SDS011;10032;51.386;12.516;2023-08-07T01:58:38;4.15;;;3.75;;
19747;SDS011;10032;51.386;12.516;2023-08-07T02:01:03;3.70;;;3.22;;
19747;SDS011;10032;51.386;12.516;2023-08-07T02:03:29;3.70;;;3.17;;
19747;SDS011;10032;51.386;12.516;2023-08-07T02:05:54;4.03;;;3.63;;
19747;SDS011;10032;51.386;12.516;2023-08-07T02:08:19;4.63;;;3.60;;
19747;SDS011;10032;51.386;12.516;2023-08-07T02:10:45;5.50;;;4.00;;
19747;SDS011;10032;51.386;12.516;2023-08-07T02:13:10;4.35;;;3.95;;
19747;SDS011;10032;51.386;12.516;2023-08-07T02:15:36;7.32;;;3.88;;
19747;SDS011;10032;51.386;12.516;2023-08-07T02:18:01;5.57;;;3.45;;
19747;SDS011;10032;51.386;12.516;2023-08-07T02:20:26;4.53;;;3.83;;
19747;SDS011;10032;51.386;12.516;2023-08-07T02:22:52;4.40;;;3.58;;
19747;SDS011;10032;51.386;12.516;2023-08-07T02:25:17;6.25;;;4.03;;
19747;SDS011;10032;51.386;12.516;2023-08-07T02:27:42;5.05;;;3.78;;
19747;SDS011;10032;51.386;12.516;2023-08-07T02:30:08;5.45;;;3.70;;
19747;SDS011;10032;51.386;12.516;2023-08-07T02:32:34;4.75;;;4.25;;
19747;SDS011;10032;51.386;12.516;2023-08-07T02:34:59;4.93;;;3.67;;
19747;SDS011;10032;51.386;12.516;2023-08-07T02:37:25;6.15;;;3.85;;
19747;SDS011;10032;51.386;12.516;2023-08-07T02:39:50;5.03;;;3.40;;
19747;SDS011;10032;51.386;12.516;2023-08-07T02:42:16;5.05;;;3.72;;
19747;SDS011;10032;51.386;12.516;2023-08-07T02:44:41;4.30;;;3.55;;
19747;SDS011;10032;51.386;12.516;2023-08-07T02:47:07;3.90;;;3.00;;
19747;SDS011;10032;51.386;12.516;2023-08-07T02:49:32;4.03;;;3.33;;
19747;SDS011;10032;51.386;12.516;2023-08-07T02:51:58;4.68;;;3.20;;
19747;SDS011;10032;51.386;12.516;2023-08-07T02:54:23;4.20;;;3.55;;
19747;SDS011;10032;51.386;12.516;2023-08-07T02:56:49;4.55;;;3.33;;
19747;SDS011;10032;51.386;12.516;2023-08-07T02:59:14;4.50;;;3.30;;
19747;SDS011;10032;51.386;12.516;2023-08-07T03:01:40;3.35;;;3.05;;
19747;SDS011;10032;51.386;12.516;2023-08-07T03:04:06;3.65;;;3.22;;
19747;SDS011;10032;51.386;12.516;2023-08-07T03:06:31;3.08;;;2.85;;
19747;SDS011;10032;51.386;12.516;2023-08-07T03:08:57;4.22;;;3.38;;
19747;SDS011;10032;51.386;12.516;2023-08-07T03:11:22;3.67;;;3.13;;
19747;SDS011;10032;51.386;12.516;2023-08-07T03:13:47;3.38;;;2.83;;
19747;SDS011;10032;51.386;12.516;2023-08-07T03:16:14;3.60;;;3.00;;
19747;SDS011;10032;51.386;12.516;2023-08-07T03:18:40;3.75;;;3.10;;
19747;SDS011;10032;51.386;12.516;2023-08-07T03:21:05;4.55;;;3.25;;
19747;SDS011;10032;51.386;12.516;2023-08-07T03:23:31;8.88;;;2.70;;
19747;SDS011;10032;51.386;12.516;2023-08-07T03:26:06;3.55;;;3.10;;
19747;SDS011;10032;51.386;12.516;2023-08-07T03:28:33;2.95;;;2.47;;
19747;SDS011;10032;51.386;12.516;2023-08-07T03:30:59;5.38;;;3.25;;
19747;SDS011;10032;51.386;12.516;2023-08-07T03:33:25;3.75;;;2.90;;
19747;SDS011;10032;51.386;12.516;2023-08-07T03:35:50;2.90;;;2.55;;
19747;SDS011;10032;51.386;12.516;2023-08-07T03:38:16;3.33;;;2.95;;
19747;SDS011;10032;51.386;12.516;2023-08-07T03:40:41;3.08;;;2.63;;
19747;SDS011;10032;51.386;12.516;2023-08-07T03:43:07;2.67;;;2.45;;
19747;SDS011;10032;51.386;12.516;2023-08-07T03:45:32;3.28;;;2.17;;
19747;SDS011;10032;51.386;12.516;2023-08-07T03:47:57;3.00;;;2.38;;
19747;SDS011;10032;51.386;12.516;2023-08-07T03:50:23;2.65;;;2.10;;
19747;SDS011;10032;51.386;12.516;2023-08-07T03:52:48;3.13;;;2.20;;
19747;SDS011;10032;51.386;12.516;2023-08-07T03:55:13;3.28;;;2.50;;
19747;SDS011;10032;51.386;12.516;2023-08-07T03:57:39;3.22;;;2.80;;
19747;SDS011;10032;51.386;12.516;2023-08-07T04:00:04;3.88;;;2.47;;
19747;SDS011;10032;51.386;12.516;2023-08-07T04:02:30;4.20;;;3.10;;
19747;SDS011;10032;51.386;12.516;2023-08-07T04:04:56;2.75;;;2.55;;
19747;SDS011;10032;51.386;12.516;2023-08-07T04:07:21;3.30;;;2.38;;
19747;SDS011;10032;51.386;12.516;2023-08-07T04:09:47;2.92;;;2.17;;
19747;SDS011;10032;51.386;12.516;2023-08-07T04:12:12;2.47;;;2.25;;
19747;SDS011;10032;51.386;12.516;2023-08-07T04:14:38;3.33;;;2.13;;
19747;SDS011;10032;51.386;12.516;2023-08-07T04:17:03;2.47;;;2.28;;
19747;SDS011;10032;51.386;12.516;2023-08-07T04:19:29;2.33;;;2.13;;
19747;SDS011;10032;51.386;12.516;2023-08-07T04:21:54;2.08;;;1.90;;
19747;SDS011;10032;51.386;12.516;2023-08-07T04:24:19;4.03;;;2.25;;
19747;SDS011;10032;51.386;12.516;2023-08-07T04:26:45;11.55;;;2.58;;
19747;SDS011;10032;51.386;12.516;2023-08-07T04:29:10;2.88;;;2.28;;
19747;SDS011;10032;51.386;12.516;2023-08-07T04:31:36;2.47;;;2.28;;
19747;SDS011;10032;51.386;12.516;2023-08-07T04:34:01;2.42;;;2.08;;
19747;SDS011;10032;51.386;12.516;2023-08-07T04:36:26;2.67;;;2.10;;
19747;SDS011;10032;51.386;12.516;2023-08-07T04:38:52;4.20;;;2.63;;
19747;SDS011;10032;51.386;12.516;2023-08-07T04:41:17;2.67;;;2.47;;
19747;SDS011;10032;51.386;12.516;2023-08-07T04:43:43;5.93;;;2.50;;
19747;SDS011;10032;51.386;12.516;2023-08-07T04:46:08;2.08;;;1.88;;
19747;SDS011;10032;51.386;12.516;2023-08-07T04:48:34;2.45;;;2.22;;
19747;SDS011;10032;51.386;12.516;2023-08-07T04:51:00;2.00;;;1.80;;
19747;SDS011;10032;51.386;12.516;2023-08-07T04:53:27;3.15;;;2.13;;
19747;SDS011;10032;51.386;12.516;2023-08-07T04:55:52;2.20;;;2.00;;
19747;SDS011;10032;51.386;12.516;2023-08-07T04:58:17;2.55;;;2.00;;
19747;SDS011;10032;51.386;12.516;2023-08-07T05:00:43;3.78;;;2.00;;
19747;SDS011;10032;51.386;12.516;2023-08-07T05:03:08;1.70;;;1.60;;
19747;SDS011;10032;51.386;12.516;2023-08-07T05:05:33;5.47;;;1.65;;
19747;SDS011;10032;51.386;12.516;2023-08-07T05:07:59;1.55;;;1.33;;
19747;SDS011;10032;51.386;12.516;2023-08-07T05:10:25;1.85;;;1.75;;
19747;SDS011;10032;51.386;12.516;2023-08-07T05:12:50;1.77;;;1.67;;
19747;SDS011;10032;51.386;12.516;2023-08-07T05:15:25;1.98;;;1.75;;
19747;SDS011;10032;51.386;12.516;2023-08-07T05:17:51;1.38;;;1.27;;
19747;SDS011;10032;51.386;12.516;2023-08-07T05:20:17;1.80;;;1.27;;
19747;SDS011;10032;51.386;12.516;2023-08-07T05:22:43;2.05;;;1.48;;
19747;SDS011;10032;51.386;12.516;2023-08-07T05:25:09;1.50;;;1.40;;
19747;SDS011;10032;51.386;12.516;2023-08-07T05:27:36;2.13;;;1.92;;
19747;SDS011;10032;51.386;12.516;2023-08-07T05:30:02;1.70;;;1.52;;
19747;SDS011;10032;51.386;12.516;2023-08-07T05:32:27;1.40;;;1.30;;
19747;SDS011;10032;51.386;12.516;2023-08-07T05:34:53;1.58;;;1.48;;
19747;SDS011;10032;51.386;12.516;2023-08-07T05:37:18;1.40;;;1.30;;
19747;SDS011;10032;51.386;12.516;2023-08-07T05:39:44;1.50;;;1.30;;
19747;SDS011;10032;51.386;12.516;2023-08-07T05:42:09;1.48;;;1.10;;
19747;SDS011;10032;51.386;12.516;2023-08-07T05:44:35;1.80;;;1.27;;
19747;SDS011;10032;51.386;12.516;2023-08-07T05:47:00;1.83;;;1.60;;
19747;SDS011;10032;51.386;12.516;2023-08-07T05:49:26;1.48;;;1.38;;
19747;SDS011;10032;51.386;12.516;2023-08-07T05:51:51;1.30;;;1.20;;
19747;SDS011;10032;51.386;12.516;2023-08-07T05:54:17;1.50;;;1.20;;
19747;SDS011;10032;51.386;12.516;2023-08-07T05:56:42;1.20;;;1.08;;
19747;SDS011;10032;51.386;12.516;2023-08-07T05:59:08;1.30;;;1.20;;
19747;SDS011;10032;51.386;12.516;2023-08-07T06:01:33;1.33;;;1.23;;
19747;SDS011;10032;51.386;12.516;2023-08-07T06:03:59;2.25;;;1.10;;
19747;SDS011;10032;51.386;12.516;2023-08-07T06:06:25;1.15;;;1.08;;
19747;SDS011;10032;51.386;12.516;2023-08-07T06:08:52;2.30;;;1.30;;
19747;SDS011;10032;51.386;12.516;2023-08-07T06:11:18;0.85;;;0.85;;
19747;SDS011;10032;51.386;12.516;2023-08-07T06:13:43;1.05;;;0.95;;
19747;SDS011;10032;51.386;12.516;2023-08-07T06:16:09;1.50;;;0.93;;
19747;SDS011;10032;51.386;12.516;2023-08-07T06:18:34;1.33;;;1.23;;
19747;SDS011;10032;51.386;12.516;2023-08-07T06:21:00;1.25;;;1.15;;
19747;SDS011;10032;51.386;12.516;2023-08-07T06:23:26;1.17;;;1.08;;
19747;SDS011;10032;51.386;12.516;2023-08-07T06:25:51;1.58;;;1.27;;
19747;SDS011;10032;51.386;12.516;2023-08-07T06:28:17;1.48;;;1.30;;
19747;SDS011;10032;51.386;12.516;2023-08-07T06:30:42;1.83;;;1.30;;
19747;SDS011;10032;51.386;12.516;2023-08-07T06:33:07;1.40;;;1.30;;
19747;SDS011;10032;51.386;12.516;2023-08-07T06:35:39;2.00;;;1.27;;
19747;SDS011;10032;51.386;12.516;2023-08-07T06:38:05;1.40;;;1.20;;
19747;SDS011;10032;51.386;12.516;2023-08-07T06:40:30;1.80;;;1.02;;
19747;SDS011;10032;51.386;12.516;2023-08-07T06:42:56;1.10;;;1.00;;
19747;SDS011;10032;51.386;12.516;2023-08-07T06:45:21;1.60;;;1.33;;
19747;SDS011;10032;51.386;12.516;2023-08-07T06:47:47;2.05;;;1.20;;
19747;SDS011;10032;51.386;12.516;2023-08-07T06:50:13;1.50;;;1.40;;
19747;SDS011;10032;51.386;12.516;2023-08-07T06:52:39;1.27;;;1.10;;
19747;SDS011;10032;51.386;12.516;2023-08-07T06:55:04;1.88;;;1.20;;
19747;SDS011;10032;51.386;12.516;2023-08-07T06:57:30;1.55;;;1.45;;
19747;SDS011;10032;51.386;12.516;2023-08-07T06:59:56;2.47;;;1.38;;
19747;SDS011;10032;51.386;12.516;2023-08-07T07:02:21;2.15;;;1.30;;
19747;SDS011;10032;51.386;12.516;2023-08-07T07:04:46;2.00;;;1.65;;
19747;SDS011;10032;51.386;12.516;2023-08-07T07:07:12;1.35;;;1.10;;
19747;SDS011;10032;51.386;12.516;2023-08-07T07:09:37;0.85;;;0.85;;
19747;SDS011;10032;51.386;12.516;2023-08-07T07:12:03;0.98;;;0.95;;
19747;SDS011;10032;51.386;12.516;2023-08-07T07:14:28;1.30;;;1.20;;
19747;SDS011;10032;51.386;12.516;2023-08-07T07:16:54;1.42;;;1.25;;
19747;SDS011;10032;51.386;12.516;2023-08-07T07:19:19;2.13;;;1.60;;
19747;SDS011;10032;51.386;12.516;2023-08-07T07:21:45;1.40;;;1.30;;
19747;SDS011;10032;51.386;12.516;2023-08-07T07:24:10;0.90;;;0.85;;
19747;SDS011;10032;51.386;12.516;2023-08-07T07:26:35;2.45;;;1.27;;
19747;SDS011;10032;51.386;12.516;2023-08-07T07:29:01;1.17;;;1.08;;
19747;SDS011;10032;51.386;12.516;2023-08-07T07:31:26;1.10;;;0.88;;
19747;SDS011;10032;51.386;12.516;2023-08-07T07:33:52;1.35;;;1.25;;
19747;SDS011;10032;51.386;12.516;2023-08-07T07:36:18;1.10;;;1.00;;
19747;SDS011;10032;51.386;12.516;2023-08-07T07:38:45;0.90;;;0.90;;
19747;SDS011;10032;51.386;12.516;2023-08-07T07:41:11;1.27;;;1.17;;
19747;SDS011;10032;51.386;12.516;2023-08-07T07:43:37;1.40;;;0.95;;
19747;SDS011;10032;51.386;12.516;2023-08-07T07:46:02;1.52;;;1.00;;
19747;SDS011;10032;51.386;12.516;2023-08-07T07:48:28;0.85;;;0.85;;
19747;SDS011;10032;51.386;12.516;2023-08-07T07:51:00;0.63;;;0.63;;
19747;SDS011;10032;51.386;12.516;2023-08-07T07:53:26;1.95;;;1.13;;
19747;SDS011;10032;51.386;12.516;2023-08-07T07:55:52;2.85;;;1.13;;
19747;SDS011;10032;51.386;12.516;2023-08-07T07:58:17;1.10;;;1.00;;
19747;SDS011;10032;51.386;12.516;2023-08-07T08:00:43;0.82;;;0.82;;
19747;SDS011;10032;51.386;12.516;2023-08-07T08:03:08;1.15;;;1.02;;
19747;SDS011;10032;51.386;12.516;2023-08-07T08:05:34;0.68;;;0.68;;
19747;SDS011;10032;51.386;12.516;2023-08-07T08:07:59;1.30;;;0.85;;
19747;SDS011;10032;51.386;12.516;2023-08-07T08:10:26;1.23;;;0.90;;
19747;SDS011;10032;51.386;12.516;2023-08-07T08:12:54;1.63;;;0.90;;
19747;SDS011;10032;51.386;12.516;2023-08-07T08:15:20;1.13;;;1.02;;
19747;SDS011;10032;51.386;12.516;2023-08-07T08:17:47;1.00;;;1.00;;
19747;SDS011;10032;51.386;12.516;2023-08-07T08:20:13;0.75;;;0.68;;
19747;SDS011;10032;51.386;12.516;2023-08-07T08:22:43;1.33;;;1.08;;
19747;SDS011;10032;51.386;12.516;2023-08-07T08:25:12;0.70;;;0.68;;
19747;SDS011;10032;51.386;12.516;2023-08-07T08:27:38;0.82;;;0.63;;
19747;SDS011;10032;51.386;12.516;2023-08-07T08:30:04;3.35;;;0.80;;
19747;SDS011;10032;51.386;12.516;2023-08-07T08:32:30;1.70;;;0.73;;
19747;SDS011;10032;51.386;12.516;2023-08-07T08:34:56;0.57;;;0.57;;
19747;SDS011;10032;51.386;12.516;2023-08-07T08:37:21;0.70;;;0.68;;
19747;SDS011;10032;51.386;12.516;2023-08-07T08:39:47;1.35;;;1.23;;
19747;SDS011;10032;51.386;12.516;2023-08-07T08:42:12;1.67;;;1.08;;
19747;SDS011;10032;51.386;12.516;2023-08-07T08:44:39;1.25;;;0.60;;
19747;SDS011;10032;51.386;12.516;2023-08-07T08:47:05;2.33;;;1.45;;
19747;SDS011;10032;51.386;12.516;2023-08-07T08:49:35;2.60;;;0.70;;
19747;SDS011;10032;51.386;12.516;2023-08-07T08:52:07;0.73;;;0.73;;
19747;SDS011;10032;51.386;12.516;2023-08-07T08:54:34;2.35;;;1.63;;
19747;SDS011;10032;51.386;12.516;2023-08-07T08:57:00;1.00;;;1.00;;
19747;SDS011;10032;51.386;12.516;2023-08-07T08:59:25;0.82;;;0.82;;
19747;SDS011;10032;51.386;12.516;2023-08-07T09:01:52;0.77;;;0.77;;
19747;SDS011;10032;51.386;12.516;2023-08-07T09:04:18;1.15;;;1.08;;
19747;SDS011;10032;51.386;12.516;2023-08-07T09:06:43;1.35;;;1.00;;
19747;SDS011;10032;51.386;12.516;2023-08-07T09:09:16;1.15;;;0.77;;
19747;SDS011;10032;51.386;12.516;2023-08-07T09:11:45;1.42;;;1.10;;
19747;SDS011;10032;51.386;12.516;2023-08-07T09:14:13;1.20;;;1.10;;
19747;SDS011;10032;51.386;12.516;2023-08-07T09:16:47;1.58;;;1.48;;
19747;SDS011;10032;51.386;12.516;2023-08-07T09:19:13;1.20;;;1.00;;
19747;SDS011;10032;51.386;12.516;2023-08-07T09:21:39;1.70;;;1.15;;
19747;SDS011;10032;51.386;12.516;2023-08-07T09:24:05;1.63;;;1.40;;
19747;SDS011;10032;51.386;12.516;2023-08-07T09:26:31;1.38;;;1.25;;
19747;SDS011;10032;51.386;12.516;2023-08-07T09:28:58;1.38;;;1.27;;
19747;SDS011;10032;51.386;12.516;2023-08-07T09:31:24;1.52;;;1.27;;
19747;SDS011;10032;51.386;12.516;2023-08-07T09:33:53;1.02;;;0.88;;
19747;SDS011;10032;51.386;12.516;2023-08-07T09:36:19;1.80;;;1.10;;
19747;SDS011;10032;51.386;12.516;2023-08-07T09:38:49;1.40;;;1.10;;
19747;SDS011;10032;51.386;12.516;2023-08-07T09:41:17;2.55;;;1.10;;
19747;SDS011;10032;51.386;12.516;2023-08-07T09:43:44;0.73;;;0.73;;
19747;SDS011;10032;51.386;12.516;2023-08-07T09:46:09;1.58;;;1.00;;
19747;SDS011;10032;51.386;12.516;2023-08-07T09:48:44;1.63;;;1.20;;
19747;SDS011;10032;51.386;12.516;2023-08-07T09:51:10;3.92;;;1.35;;
19747;SDS011;10032;51.386;12.516;2023-08-07T09:53:36;1.50;;;1.40;;
19747;SDS011;10032;51.386;12.516;2023-08-07T09:56:01;1.23;;;0.90;;
19747;SDS011;10032;51.386;12.516;2023-08-07T09:58:27;2.03;;;1.30;;
19747;SDS011;10032;51.386;12.516;2023-08-07T10:00:53;0.95;;;0.88;;
19747;SDS011;10032;51.386;12.516;2023-08-07T10:03:22;1.30;;;1.20;;
19747;SDS011;10032;51.386;12.516;2023-08-07T10:05:48;1.50;;;1.10;;
19747;SDS011;10032;51.386;12.516;2023-08-07T10:08:13;1.52;;;1.27;;
19747;SDS011;10032;51.386;12.516;2023-08-07T10:10:39;1.15;;;1.05;;
19747;SDS011;10032;51.386;12.516;2023-08-07T10:13:05;2.28;;;1.33;;
19747;SDS011;10032;51.386;12.516;2023-08-07T10:15:31;0.93;;;0.85;;
19747;SDS011;10032;51.386;12.516;2023-08-07T10:17:58;0.88;;;0.88;;
19747;SDS011;10032;51.386;12.516;2023-08-07T10:20:27;1.00;;;1.00;;
19747;SDS011;10032;51.386;12.516;2023-08-07T10:22:56;1.10;;;0.95;;
19747;SDS011;10032;51.386;12.516;2023-08-07T10:25:34;0.75;;;0.63;;
19747;SDS011;10032;51.386;12.516;2023-08-07T10:28:02;1.35;;;0.90;;
19747;SDS011;10032;51.386;12.516;2023-08-07T10:30:31;0.75;;;0.75;;
19747;SDS011;10032;51.386;12.516;2023-08-07T10:32:58;0.73;;;0.73;;
19747;SDS011;10032;51.386;12.516;2023-08-07T10:35:25;1.77;;;0.68;;
19747;SDS011;10032;51.386;12.516;2023-08-07T10:38:07;1.02;;;0.60;;
19747;SDS011;10032;51.386;12.516;2023-08-07T10:40:34;0.68;;;0.68;;
19747;SDS011;10032;51.386;12.516;2023-08-07T10:43:26;0.47;;;0.47;;
19747;SDS011;10032;51.386;12.516;2023-08-07T10:45:53;0.50;;;0.50;;
19747;SDS011;10032;51.386;12.516;2023-08-07T10:48:19;0.50;;;0.50;;
19747;SDS011;10032;51.386;12.516;2023-08-07T10:53:24;0.70;;;0.70;;
19747;SDS011;10032;51.386;12.516;2023-08-07T10:55:56;0.63;;;0.63;;
19747;SDS011;10032;51.386;12.516;2023-08-07T10:58:29;0.40;;;0.40;;
19747;SDS011;10032;51.386;12.516;2023-08-07T11:04:05;0.68;;;0.68;;
19747;SDS011;10032;51.386;12.516;2023-08-07T11:06:33;0.77;;;0.70;;
19747;SDS011;10032;51.386;12.516;2023-08-07T11:09:00;1.58;;;0.90;;
19747;SDS011;10032;51.386;12.516;2023-08-07T11:11:28;0.65;;;0.65;;
19747;SDS011;10032;51.386;12.516;2023-08-07T11:13:54;0.50;;;0.50;;
19747;SDS011;10032;51.386;12.516;2023-08-07T11:16:19;0.77;;;0.77;;
19747;SDS011;10032;51.386;12.516;2023-08-07T11:18:48;1.40;;;0.95;;
19747;SDS011;10032;51.386;12.516;2023-08-07T11:21:14;1.42;;;1.13;;
19747;SDS011;10032;51.386;12.516;2023-08-07T11:23:40;1.27;;;1.17;;
19747;SDS011;10032;51.386;12.516;2023-08-07T11:26:06;1.00;;;0.90;;
19747;SDS011;10032;51.386;12.516;2023-08-07T11:28:33;1.30;;;0.90;;
19747;SDS011;10032;51.386;12.516;2023-08-07T11:30:59;2.28;;;1.38;;
19747;SDS011;10032;51.386;12.516;2023-08-07T11:33:25;1.25;;;1.15;;
19747;SDS011;10032;51.386;12.516;2023-08-07T11:35:52;1.08;;;0.90;;
19747;SDS011;10032;51.386;12.516;2023-08-07T11:41:00;1.35;;;1.00;;
19747;SDS011;10032;51.386;12.516;2023-08-07T11:43:27;3.55;;;0.90;;
19747;SDS011;10032;51.386;12.516;2023-08-07T11:45:55;0.65;;;0.65;;
19747;SDS011;10032;51.386;12.516;2023-08-07T11:48:29;0.70;;;0.70;;
19747;SDS011;10032;51.386;12.516;2023-08-07T11:50:56;2.83;;;0.70;;
19747;SDS011;10032;51.386;12.516;2023-08-07T11:53:23;1.05;;;0.80;;
19747;SDS011;10032;51.386;12.516;2023-08-07T11:55:57;0.57;;;0.57;;
19747;SDS011;10032;51.386;12.516;2023-08-07T11:58:24;1.27;;;0.65;;
19747;SDS011;10032;51.386;12.516;2023-08-07T12:00:51;0.65;;;0.65;;
19747;SDS011;10032;51.386;12.516;2023-08-07T12:03:51;0.60;;;0.60;;
19747;SDS011;10032;51.386;12.516;2023-08-07T12:06:14;0.88;;;0.88;;
19747;SDS011;10032;51.386;12.516;2023-08-07T12:08:40;0.90;;;0.90;;
19747;SDS011;10032;51.386;12.516;2023-08-07T12:11:10;1.10;;;0.60;;
19747;SDS011;10032;51.386;12.516;2023-08-07T12:13:46;1.55;;;1.00;;
19747;SDS011;10032;51.386;12.516;2023-08-07T12:16:15;1.02;;;0.98;;
19747;SDS011;10032;51.386;12.516;2023-08-07T12:18:53;1.40;;;0.88;;
19747;SDS011;10032;51.386;12.516;2023-08-07T12:21:22;1.35;;;0.70;;
19747;SDS011;10032;51.386;12.516;2023-08-07T12:26:43;2.33;;;1.05;;
19747;SDS011;10032;51.386;12.516;2023-08-07T12:29:27;1.40;;;1.13;;
19747;SDS011;10032;51.386;12.516;2023-08-07T12:32:04;1.88;;;1.10;;
19747;SDS011;10032;51.386;12.516;2023-08-07T12:34:32;1.30;;;1.20;;
19747;SDS011;10032;51.386;12.516;2023-08-07T12:37:13;1.33;;;1.23;;
19747;SDS011;10032;51.386;12.516;2023-08-07T12:40:16;0.82;;;0.80;;
19747;SDS011;10032;51.386;12.516;2023-08-07T12:42:45;1.70;;;1.30;;
19747;SDS011;10032;51.386;12.516;2023-08-07T12:45:11;2.20;;;1.23;;
19747;SDS011;10032;51.386;12.516;2023-08-07T12:47:36;3.78;;;1.58;;
19747;SDS011;10032;51.386;12.516;2023-08-07T12:50:02;1.73;;;1.30;;
19747;SDS011;10032;51.386;12.516;2023-08-07T12:52:28;1.60;;;1.42;;
19747;SDS011;10032;51.386;12.516;2023-08-07T12:54:54;2.22;;;1.15;;
19747;SDS011;10032;51.386;12.516;2023-08-07T12:57:23;1.75;;;1.42;;
19747;SDS011;10032;51.386;12.516;2023-08-07T12:59:48;1.13;;;1.00;;
19747;SDS011;10032;51.386;12.516;2023-08-07T13:02:14;1.27;;;1.00;;
19747;SDS011;10032;51.386;12.516;2023-08-07T13:04:39;1.15;;;1.00;;
19747;SDS011;10032;51.386;12.516;2023-08-07T13:07:04;2.53;;;1.20;;
19747;SDS011;10032;51.386;12.516;2023-08-07T13:09:30;0.90;;;0.88;;
19747;SDS011;10032;51.386;12.516;2023-08-07T13:11:56;1.48;;;1.02;;
19747;SDS011;10032;51.386;12.516;2023-08-07T13:14:21;1.15;;;1.05;;
19747;SDS011;10032;51.386;12.516;2023-08-07T13:16:46;1.70;;;0.85;;
19747;SDS011;10032;51.386;12.516;2023-08-07T13:19:12;1.98;;;1.33;;
19747;SDS011;10032;51.386;12.516;2023-08-07T13:21:37;1.73;;;0.98;;
19747;SDS011;10032;51.386;12.516;2023-08-07T13:24:03;1.00;;;0.80;;
19747;SDS011;10032;51.386;12.516;2023-08-07T13:26:30;1.20;;;1.10;;
19747;SDS011;10032;51.386;12.516;2023-08-07T13:28:55;2.35;;;0.75;;
19747;SDS011;10032;51.386;12.516;2023-08-07T13:31:20;1.10;;;0.90;;
19747;SDS011;10032;51.386;12.516;2023-08-07T13:33:46;1.65;;;1.15;;
19747;SDS011;10032;51.386;12.516;2023-08-07T13:36:11;2.58;;;0.88;;
19747;SDS011;10032;51.386;12.516;2023-08-07T13:38:37;0.93;;;0.77;;
19747;SDS011;10032;51.386;12.516;2023-08-07T13:41:03;0.98;;;0.98;;
19747;SDS011;10032;51.386;12.516;2023-08-07T13:43:28;1.60;;;1.17;;
19747;SDS011;10032;51.386;12.516;2023-08-07T13:45:54;0.85;;;0.63;;
19747;SDS011;10032;51.386;12.516;2023-08-07T13:48:19;0.80;;;0.65;;
19747;SDS011;10032;51.386;12.516;2023-08-07T13:50:46;0.63;;;0.60;;
19747;SDS011;10032;51.386;12.516;2023-08-07T13:53:12;1.63;;;0.68;;
19747;SDS011;10032;51.386;12.516;2023-08-07T13:55:37;0.60;;;0.60;;
19747;SDS011;10032;51.386;12.516;2023-08-07T13:58:03;1.00;;;0.60;;
19747;SDS011;10032;51.386;12.516;2023-08-07T14:00:29;1.83;;;0.68;;
19747;SDS011;10032;51.386;12.516;2023-08-07T14:02:54;0.95;;;0.70;;
19747;SDS011;10032;51.386;12.516;2023-08-07T14:05:20;1.58;;;1.00;;
19747;SDS011;10032;51.386;12.516;2023-08-07T14:07:45;0.50;;;0.50;;
19747;SDS011;10032;51.386;12.516;2023-08-07T14:10:11;1.58;;;0.73;;
19747;SDS011;10032;51.386;12.516;2023-08-07T14:12:36;1.10;;;1.00;;
19747;SDS011;10032;51.386;12.516;2023-08-07T14:15:01;0.82;;;0.82;;
19747;SDS011;10032;51.386;12.516;2023-08-07T14:17:27;1.20;;;0.98;;
19747;SDS011;10032;51.386;12.516;2023-08-07T14:19:52;1.33;;;0.85;;
19747;SDS011;10032;51.386;12.516;2023-08-07T14:22:18;1.38;;;0.75;;
19747;SDS011;10032;51.386;12.516;2023-08-07T14:24:43;1.50;;;0.80;;
19747;SDS011;10032;51.386;12.516;2023-08-07T14:27:09;0.70;;;0.63;;
19747;SDS011;10032;51.386;12.516;2023-08-07T14:29:34;0.70;;;0.70;;
19747;SDS011;10032;51.386;12.516;2023-08-07T14:32:00;0.20;;;0.20;;
19747;SDS011;10032;51.386;12.516;2023-08-07T14:34:25;0.55;;;0.45;;
19747;SDS011;10032;51.386;12.516;2023-08-07T14:36:51;0.68;;;0.45;;
19747;SDS011;10032;51.386;12.516;2023-08-07T14:39:17;0.82;;;0.60;;
19747;SDS011;10032;51.386;12.516;2023-08-07T14:41:42;0.63;;;0.63;;
19747;SDS011;10032;51.386;12.516;2023-08-07T14:44:08;0.98;;;0.88;;
19747;SDS011;10032;51.386;12.516;2023-08-07T14:46:33;2.42;;;0.90;;